sensor_id;sensor_type;location;lat;lon;timestamp;P1;durP1;ratioP1;P2;durP2;ratioP2
34960;SDS011;30789;52.030;7.110;2022-08-19T00:00:07;8.05;;;5.63;;
34960;SDS011;30789;52.030;7.110;2022-08-19T00:02:35;4.93;;;4.43;;
34960;SDS011;30789;52.030;7.110;2022-08-19T00:05:02;6.90;;;5.32;;
34960;SDS011;30789;52.030;7.110;2022-08-19T00:07:29;6.75;;;5.63;;
34960;SDS011;30789;52.030;7.110;2022-08-19T00:09:55;6.25;;;5.65;;
34960;SDS011;30789;52.030;7.110;2022-08-19T00:12:21;8.68;;;6.05;;
34960;SDS011;30789;52.030;7.110;2022-08-19T00:14:48;9.10;;;6.90;;
34960;SDS011;30789;52.030;7.110;2022-08-19T00:17:14;7.35;;;6.63;;
34960;SDS011;30789;52.030;7.110;2022-08-19T00:19:41;7.25;;;6.40;;
34960;SDS011;30789;52.030;7.110;2022-08-19T00:22:08;7.30;;;6.38;;
34960;SDS011;30789;52.030;7.110;2022-08-19T00:24:34;7.00;;;6.07;;
34960;SDS011;30789;52.030;7.110;2022-08-19T00:27:03;7.32;;;6.63;;
34960;SDS011;30789;52.030;7.110;2022-08-19T00:29:29;7.25;;;6.45;;
34960;SDS011;30789;52.030;7.110;2022-08-19T00:31:56;6.30;;;5.53;;
34960;SDS011;30789;52.030;7.110;2022-08-19T00:34:23;6.78;;;5.68;;
34960;SDS011;30789;52.030;7.110;2022-08-19T00:36:51;6.75;;;6.05;;
34960;SDS011;30789;52.030;7.110;2022-08-19T00:39:17;7.97;;;6.07;;
34960;SDS011;30789;52.030;7.110;2022-08-19T00:41:44;9.10;;;6.57;;
34960;SDS011;30789;52.030;7.110;2022-08-19T00:44:14;6.93;;;5.95;;
34960;SDS011;30789;52.030;7.110;2022-08-19T00:46:42;7.93;;;6.20;;
34960;SDS011;30789;52.030;7.110;2022-08-19T00:49:10;8.82;;;6.57;;
34960;SDS011;30789;52.030;7.110;2022-08-19T00:51:39;6.88;;;6.20;;
34960;SDS011;30789;52.030;7.110;2022-08-19T00:54:08;7.28;;;6.53;;
34960;SDS011;30789;52.030;7.110;2022-08-19T00:56:35;6.72;;;6.03;;
34960;SDS011;30789;52.030;7.110;2022-08-19T00:59:01;7.20;;;6.47;;
34960;SDS011;30789;52.030;7.110;2022-08-19T01:01:28;7.13;;;6.43;;
34960;SDS011;30789;52.030;7.110;2022-08-19T01:03:54;11.18;;;6.90;;
34960;SDS011;30789;52.030;7.110;2022-08-19T01:06:21;8.02;;;7.03;;
34960;SDS011;30789;52.030;7.110;2022-08-19T01:08:47;9.48;;;7.47;;
34960;SDS011;30789;52.030;7.110;2022-08-19T01:11:15;8.45;;;7.20;;
34960;SDS011;30789;52.030;7.110;2022-08-19T01:13:41;8.05;;;6.93;;
34960;SDS011;30789;52.030;7.110;2022-08-19T01:16:09;7.78;;;6.93;;
34960;SDS011;30789;52.030;7.110;2022-08-19T01:18:36;7.78;;;6.63;;
34960;SDS011;30789;52.030;7.110;2022-08-19T01:21:05;8.65;;;7.15;;
34960;SDS011;30789;52.030;7.110;2022-08-19T01:23:35;8.00;;;6.72;;
34960;SDS011;30789;52.030;7.110;2022-08-19T01:26:11;9.63;;;7.13;;
34960;SDS011;30789;52.030;7.110;2022-08-19T01:28:38;7.13;;;6.40;;
34960;SDS011;30789;52.030;7.110;2022-08-19T01:31:05;8.25;;;7.30;;
34960;SDS011;30789;52.030;7.110;2022-08-19T01:33:31;8.40;;;6.85;;
34960;SDS011;30789;52.030;7.110;2022-08-19T01:36:03;8.80;;;7.00;;
34960;SDS011;30789;52.030;7.110;2022-08-19T01:38:29;8.40;;;6.95;;
34960;SDS011;30789;52.030;7.110;2022-08-19T01:40:57;8.13;;;6.82;;
34960;SDS011;30789;52.030;7.110;2022-08-19T01:43:25;8.25;;;7.00;;
34960;SDS011;30789;52.030;7.110;2022-08-19T01:45:51;9.43;;;7.15;;
34960;SDS011;30789;52.030;7.110;2022-08-19T01:48:18;8.57;;;7.68;;
34960;SDS011;30789;52.030;7.110;2022-08-19T01:50:44;9.65;;;7.63;;
34960;SDS011;30789;52.030;7.110;2022-08-19T01:53:12;9.70;;;7.38;;
34960;SDS011;30789;52.030;7.110;2022-08-19T01:55:39;12.65;;;7.38;;
34960;SDS011;30789;52.030;7.110;2022-08-19T01:58:07;8.38;;;7.40;;
34960;SDS011;30789;52.030;7.110;2022-08-19T02:00:34;10.40;;;7.68;;
34960;SDS011;30789;52.030;7.110;2022-08-19T02:03:00;10.13;;;7.80;;
34960;SDS011;30789;52.030;7.110;2022-08-19T02:05:27;8.93;;;8.00;;
34960;SDS011;30789;52.030;7.110;2022-08-19T02:07:54;10.02;;;7.80;;
34960;SDS011;30789;52.030;7.110;2022-08-19T02:10:21;10.20;;;8.18;;
34960;SDS011;30789;52.030;7.110;2022-08-19T02:12:47;11.30;;;9.13;;
34960;SDS011;30789;52.030;7.110;2022-08-19T02:15:16;8.23;;;7.20;;
34960;SDS011;30789;52.030;7.110;2022-08-19T02:17:43;11.15;;;8.20;;
34960;SDS011;30789;52.030;7.110;2022-08-19T02:20:10;9.48;;;7.82;;
34960;SDS011;30789;52.030;7.110;2022-08-19T02:22:38;10.65;;;7.78;;
34960;SDS011;30789;52.030;7.110;2022-08-19T02:25:06;9.35;;;7.43;;
34960;SDS011;30789;52.030;7.110;2022-08-19T02:27:33;7.90;;;6.95;;
34960;SDS011;30789;52.030;7.110;2022-08-19T02:29:59;8.88;;;7.97;;
34960;SDS011;30789;52.030;7.110;2022-08-19T02:32:27;8.52;;;7.63;;
34960;SDS011;30789;52.030;7.110;2022-08-19T02:34:55;9.88;;;7.07;;
34960;SDS011;30789;52.030;7.110;2022-08-19T02:37:21;8.95;;;7.10;;
34960;SDS011;30789;52.030;7.110;2022-08-19T02:40:06;8.77;;;7.32;;
34960;SDS011;30789;52.030;7.110;2022-08-19T02:42:32;12.88;;;7.97;;
34960;SDS011;30789;52.030;7.110;2022-08-19T02:44:58;8.45;;;7.50;;
34960;SDS011;30789;52.030;7.110;2022-08-19T02:47:26;8.98;;;7.07;;
34960;SDS011;30789;52.030;7.110;2022-08-19T02:49:53;8.68;;;7.28;;
34960;SDS011;30789;52.030;7.110;2022-08-19T02:52:19;11.85;;;8.48;;
34960;SDS011;30789;52.030;7.110;2022-08-19T02:54:48;9.88;;;8.38;;
34960;SDS011;30789;52.030;7.110;2022-08-19T02:57:14;9.75;;;8.10;;
34960;SDS011;30789;52.030;7.110;2022-08-19T02:59:40;10.18;;;8.73;;
34960;SDS011;30789;52.030;7.110;2022-08-19T03:02:07;9.57;;;7.68;;
34960;SDS011;30789;52.030;7.110;2022-08-19T03:04:34;10.70;;;7.63;;
34960;SDS011;30789;52.030;7.110;2022-08-19T03:07:01;8.88;;;7.40;;
34960;SDS011;30789;52.030;7.110;2022-08-19T03:09:27;9.93;;;7.53;;
34960;SDS011;30789;52.030;7.110;2022-08-19T03:11:55;11.32;;;8.50;;
34960;SDS011;30789;52.030;7.110;2022-08-19T03:14:21;9.50;;;8.07;;
34960;SDS011;30789;52.030;7.110;2022-08-19T03:16:48;9.40;;;8.05;;
34960;SDS011;30789;52.030;7.110;2022-08-19T03:19:15;12.82;;;8.23;;
34960;SDS011;30789;52.030;7.110;2022-08-19T03:21:44;9.00;;;7.22;;
34960;SDS011;30789;52.030;7.110;2022-08-19T03:24:11;9.40;;;8.38;;
34960;SDS011;30789;52.030;7.110;2022-08-19T03:26:38;9.57;;;8.20;;
34960;SDS011;30789;52.030;7.110;2022-08-19T03:29:04;8.93;;;7.95;;
34960;SDS011;30789;52.030;7.110;2022-08-19T03:31:31;9.30;;;7.38;;
34960;SDS011;30789;52.030;7.110;2022-08-19T03:33:58;10.18;;;8.15;;
34960;SDS011;30789;52.030;7.110;2022-08-19T03:36:25;8.80;;;7.75;;
34960;SDS011;30789;52.030;7.110;2022-08-19T03:38:54;9.60;;;7.70;;
34960;SDS011;30789;52.030;7.110;2022-08-19T03:41:22;9.38;;;7.55;;
34960;SDS011;30789;52.030;7.110;2022-08-19T03:43:50;11.43;;;6.90;;
34960;SDS011;30789;52.030;7.110;2022-08-19T03:46:17;8.07;;;7.03;;
34960;SDS011;30789;52.030;7.110;2022-08-19T03:48:45;12.32;;;7.28;;
34960;SDS011;30789;52.030;7.110;2022-08-19T03:51:15;8.52;;;7.68;;
34960;SDS011;30789;52.030;7.110;2022-08-19T03:53:42;9.00;;;7.40;;
34960;SDS011;30789;52.030;7.110;2022-08-19T03:56:09;9.73;;;7.90;;
34960;SDS011;30789;52.030;7.110;2022-08-19T03:58:37;11.50;;;7.88;;
34960;SDS011;30789;52.030;7.110;2022-08-19T04:01:06;8.38;;;7.55;;
34960;SDS011;30789;52.030;7.110;2022-08-19T04:03:33;11.80;;;7.90;;
34960;SDS011;30789;52.030;7.110;2022-08-19T04:06:08;12.60;;;8.98;;
34960;SDS011;30789;52.030;7.110;2022-08-19T04:08:35;9.93;;;7.78;;
34960;SDS011;30789;52.030;7.110;2022-08-19T04:11:05;9.60;;;7.97;;
34960;SDS011;30789;52.030;7.110;2022-08-19T04:13:34;9.88;;;8.02;;
34960;SDS011;30789;52.030;7.110;2022-08-19T04:16:00;11.77;;;7.95;;
34960;SDS011;30789;52.030;7.110;2022-08-19T04:18:26;10.27;;;8.07;;
34960;SDS011;30789;52.030;7.110;2022-08-19T04:20:54;9.90;;;8.10;;
34960;SDS011;30789;52.030;7.110;2022-08-19T04:23:21;9.35;;;7.85;;
34960;SDS011;30789;52.030;7.110;2022-08-19T04:25:48;9.63;;;8.10;;
34960;SDS011;30789;52.030;7.110;2022-08-19T04:28:15;9.52;;;8.30;;
34960;SDS011;30789;52.030;7.110;2022-08-19T04:30:44;11.88;;;8.95;;
34960;SDS011;30789;52.030;7.110;2022-08-19T04:33:11;10.95;;;8.02;;
34960;SDS011;30789;52.030;7.110;2022-08-19T04:35:38;10.82;;;8.85;;
34960;SDS011;30789;52.030;7.110;2022-08-19T04:38:05;10.80;;;9.13;;
34960;SDS011;30789;52.030;7.110;2022-08-19T04:40:32;13.13;;;9.15;;
34960;SDS011;30789;52.030;7.110;2022-08-19T04:43:15;11.73;;;8.35;;
34960;SDS011;30789;52.030;7.110;2022-08-19T04:45:43;10.30;;;8.10;;
34960;SDS011;30789;52.030;7.110;2022-08-19T04:48:10;10.27;;;8.55;;
34960;SDS011;30789;52.030;7.110;2022-08-19T04:50:38;8.88;;;7.82;;
34960;SDS011;30789;52.030;7.110;2022-08-19T04:53:05;10.90;;;8.65;;
34960;SDS011;30789;52.030;7.110;2022-08-19T04:55:31;8.55;;;7.57;;
34960;SDS011;30789;52.030;7.110;2022-08-19T04:57:58;10.02;;;7.95;;
34960;SDS011;30789;52.030;7.110;2022-08-19T05:00:25;14.15;;;8.65;;
34960;SDS011;30789;52.030;7.110;2022-08-19T05:02:52;11.98;;;9.55;;
34960;SDS011;30789;52.030;7.110;2022-08-19T05:05:18;10.95;;;9.00;;
34960;SDS011;30789;52.030;7.110;2022-08-19T05:07:45;13.27;;;9.68;;
34960;SDS011;30789;52.030;7.110;2022-08-19T05:10:12;12.18;;;9.23;;
34960;SDS011;30789;52.030;7.110;2022-08-19T05:12:38;11.10;;;9.02;;
34960;SDS011;30789;52.030;7.110;2022-08-19T05:15:05;14.60;;;9.82;;
34960;SDS011;30789;52.030;7.110;2022-08-19T05:17:33;13.18;;;10.30;;
34960;SDS011;30789;52.030;7.110;2022-08-19T05:20:01;15.25;;;10.63;;
34960;SDS011;30789;52.030;7.110;2022-08-19T05:22:45;11.65;;;9.35;;
34960;SDS011;30789;52.030;7.110;2022-08-19T05:25:13;15.13;;;10.30;;
34960;SDS011;30789;52.030;7.110;2022-08-19T05:27:40;12.60;;;9.48;;
34960;SDS011;30789;52.030;7.110;2022-08-19T05:30:07;10.60;;;8.82;;
34960;SDS011;30789;52.030;7.110;2022-08-19T05:32:33;14.55;;;10.20;;
34960;SDS011;30789;52.030;7.110;2022-08-19T05:35:01;15.73;;;10.80;;
34960;SDS011;30789;52.030;7.110;2022-08-19T05:37:27;11.60;;;9.65;;
34960;SDS011;30789;52.030;7.110;2022-08-19T05:39:53;14.07;;;10.23;;
34960;SDS011;30789;52.030;7.110;2022-08-19T05:42:20;14.55;;;10.77;;
34960;SDS011;30789;52.030;7.110;2022-08-19T05:44:47;13.90;;;10.10;;
34960;SDS011;30789;52.030;7.110;2022-08-19T05:47:14;14.02;;;10.80;;
34960;SDS011;30789;52.030;7.110;2022-08-19T05:49:40;16.13;;;11.40;;
34960;SDS011;30789;52.030;7.110;2022-08-19T05:52:09;17.40;;;11.82;;
34960;SDS011;30789;52.030;7.110;2022-08-19T05:54:36;19.60;;;12.02;;
34960;SDS011;30789;52.030;7.110;2022-08-19T05:57:05;16.00;;;12.10;;
34960;SDS011;30789;52.030;7.110;2022-08-19T05:59:31;19.45;;;12.45;;
34960;SDS011;30789;52.030;7.110;2022-08-19T06:02:00;19.20;;;12.48;;
34960;SDS011;30789;52.030;7.110;2022-08-19T06:04:26;14.48;;;11.80;;
34960;SDS011;30789;52.030;7.110;2022-08-19T06:06:53;17.20;;;12.15;;
34960;SDS011;30789;52.030;7.110;2022-08-19T06:09:22;14.48;;;11.50;;
34960;SDS011;30789;52.030;7.110;2022-08-19T06:11:49;19.58;;;12.35;;
34960;SDS011;30789;52.030;7.110;2022-08-19T06:14:19;17.90;;;12.27;;
34960;SDS011;30789;52.030;7.110;2022-08-19T06:16:46;21.55;;;12.80;;
34960;SDS011;30789;52.030;7.110;2022-08-19T06:19:13;19.50;;;11.88;;
34960;SDS011;30789;52.030;7.110;2022-08-19T06:21:41;15.15;;;11.27;;
34960;SDS011;30789;52.030;7.110;2022-08-19T06:24:09;14.15;;;11.68;;
34960;SDS011;30789;52.030;7.110;2022-08-19T06:26:38;16.83;;;12.18;;
34960;SDS011;30789;52.030;7.110;2022-08-19T06:29:05;18.27;;;11.63;;
34960;SDS011;30789;52.030;7.110;2022-08-19T06:31:33;16.48;;;12.25;;
34960;SDS011;30789;52.030;7.110;2022-08-19T06:34:00;15.13;;;11.35;;
34960;SDS011;30789;52.030;7.110;2022-08-19T06:36:28;15.50;;;11.45;;
34960;SDS011;30789;52.030;7.110;2022-08-19T06:38:56;15.60;;;11.77;;
34960;SDS011;30789;52.030;7.110;2022-08-19T06:41:23;15.80;;;11.43;;
34960;SDS011;30789;52.030;7.110;2022-08-19T06:43:51;14.43;;;11.10;;
34960;SDS011;30789;52.030;7.110;2022-08-19T06:46:17;14.52;;;10.48;;
34960;SDS011;30789;52.030;7.110;2022-08-19T06:48:44;18.00;;;12.25;;
34960;SDS011;30789;52.030;7.110;2022-08-19T06:51:11;15.32;;;10.27;;
34960;SDS011;30789;52.030;7.110;2022-08-19T06:53:40;14.10;;;10.30;;
34960;SDS011;30789;52.030;7.110;2022-08-19T06:56:11;14.02;;;11.30;;
34960;SDS011;30789;52.030;7.110;2022-08-19T06:58:38;13.73;;;10.13;;
34960;SDS011;30789;52.030;7.110;2022-08-19T07:01:06;15.90;;;10.27;;
34960;SDS011;30789;52.030;7.110;2022-08-19T07:03:32;14.57;;;10.80;;
34960;SDS011;30789;52.030;7.110;2022-08-19T07:06:02;16.10;;;10.43;;
34960;SDS011;30789;52.030;7.110;2022-08-19T07:08:28;19.77;;;10.65;;
34960;SDS011;30789;52.030;7.110;2022-08-19T07:10:55;13.25;;;9.90;;
34960;SDS011;30789;52.030;7.110;2022-08-19T07:13:21;14.10;;;9.48;;
34960;SDS011;30789;52.030;7.110;2022-08-19T07:15:48;13.07;;;10.05;;
34960;SDS011;30789;52.030;7.110;2022-08-19T07:18:16;14.35;;;10.05;;
34960;SDS011;30789;52.030;7.110;2022-08-19T07:20:42;13.38;;;9.88;;
34960;SDS011;30789;52.030;7.110;2022-08-19T07:23:09;12.98;;;9.88;;
34960;SDS011;30789;52.030;7.110;2022-08-19T07:25:35;14.30;;;8.68;;
34960;SDS011;30789;52.030;7.110;2022-08-19T07:28:02;11.23;;;8.50;;
34960;SDS011;30789;52.030;7.110;2022-08-19T07:30:28;14.38;;;9.65;;
34960;SDS011;30789;52.030;7.110;2022-08-19T07:32:55;10.52;;;7.88;;
34960;SDS011;30789;52.030;7.110;2022-08-19T07:35:23;11.88;;;8.35;;
34960;SDS011;30789;52.030;7.110;2022-08-19T07:37:50;9.63;;;7.30;;
34960;SDS011;30789;52.030;7.110;2022-08-19T07:40:17;8.77;;;7.07;;
34960;SDS011;30789;52.030;7.110;2022-08-19T07:42:44;12.52;;;7.05;;
34960;SDS011;30789;52.030;7.110;2022-08-19T07:45:10;8.70;;;6.47;;
34960;SDS011;30789;52.030;7.110;2022-08-19T07:47:36;8.27;;;6.57;;
34960;SDS011;30789;52.030;7.110;2022-08-19T07:50:06;8.98;;;7.38;;
34960;SDS011;30789;52.030;7.110;2022-08-19T07:52:34;7.95;;;6.93;;
34960;SDS011;30789;52.030;7.110;2022-08-19T07:55:03;8.75;;;5.90;;
34960;SDS011;30789;52.030;7.110;2022-08-19T07:57:30;8.35;;;7.03;;
34960;SDS011;30789;52.030;7.110;2022-08-19T07:59:56;9.88;;;7.38;;
34960;SDS011;30789;52.030;7.110;2022-08-19T08:02:23;10.05;;;6.70;;
34960;SDS011;30789;52.030;7.110;2022-08-19T08:04:49;9.10;;;7.68;;
34960;SDS011;30789;52.030;7.110;2022-08-19T08:07:34;8.70;;;7.07;;
34960;SDS011;30789;52.030;7.110;2022-08-19T08:10:18;12.00;;;7.95;;
34960;SDS011;30789;52.030;7.110;2022-08-19T08:12:44;10.65;;;8.25;;
34960;SDS011;30789;52.030;7.110;2022-08-19T08:15:11;8.90;;;6.57;;
34960;SDS011;30789;52.030;7.110;2022-08-19T08:17:41;7.97;;;6.65;;
34960;SDS011;30789;52.030;7.110;2022-08-19T08:20:08;6.57;;;5.85;;
34960;SDS011;30789;52.030;7.110;2022-08-19T08:22:35;7.05;;;6.05;;
34960;SDS011;30789;52.030;7.110;2022-08-19T08:25:22;8.50;;;5.97;;
34960;SDS011;30789;52.030;7.110;2022-08-19T08:27:49;9.13;;;7.03;;
34960;SDS011;30789;52.030;7.110;2022-08-19T08:30:17;7.45;;;6.35;;
34960;SDS011;30789;52.030;7.110;2022-08-19T08:32:44;7.45;;;6.20;;
34960;SDS011;30789;52.030;7.110;2022-08-19T08:35:12;7.40;;;6.07;;
34960;SDS011;30789;52.030;7.110;2022-08-19T08:37:40;6.70;;;6.03;;
34960;SDS011;30789;52.030;7.110;2022-08-19T08:40:16;9.40;;;6.63;;
34960;SDS011;30789;52.030;7.110;2022-08-19T08:42:46;8.80;;;5.75;;
34960;SDS011;30789;52.030;7.110;2022-08-19T08:45:16;6.97;;;6.00;;
34960;SDS011;30789;52.030;7.110;2022-08-19T08:47:44;8.30;;;6.80;;
34960;SDS011;30789;52.030;7.110;2022-08-19T08:50:13;7.00;;;6.25;;
34960;SDS011;30789;52.030;7.110;2022-08-19T08:52:44;8.10;;;5.68;;
34960;SDS011;30789;52.030;7.110;2022-08-19T08:55:12;6.35;;;5.65;;
34960;SDS011;30789;52.030;7.110;2022-08-19T08:57:42;7.43;;;5.53;;
34960;SDS011;30789;52.030;7.110;2022-08-19T09:00:10;6.05;;;5.40;;
34960;SDS011;30789;52.030;7.110;2022-08-19T09:02:38;4.43;;;4.03;;
34960;SDS011;30789;52.030;7.110;2022-08-19T09:05:04;6.03;;;5.43;;
34960;SDS011;30789;52.030;7.110;2022-08-19T09:07:34;7.68;;;6.07;;
34960;SDS011;30789;52.030;7.110;2022-08-19T09:10:10;7.85;;;5.75;;
34960;SDS011;30789;52.030;7.110;2022-08-19T09:12:42;6.28;;;5.68;;
34960;SDS011;30789;52.030;7.110;2022-08-19T09:15:12;5.15;;;4.63;;
34960;SDS011;30789;52.030;7.110;2022-08-19T09:17:39;8.90;;;6.35;;
34960;SDS011;30789;52.030;7.110;2022-08-19T09:20:08;6.07;;;5.43;;
34960;SDS011;30789;52.030;7.110;2022-08-19T09:22:39;8.23;;;5.75;;
34960;SDS011;30789;52.030;7.110;2022-08-19T09:25:06;8.52;;;6.45;;
34960;SDS011;30789;52.030;7.110;2022-08-19T09:27:35;10.63;;;7.47;;
34960;SDS011;30789;52.030;7.110;2022-08-19T09:30:03;11.20;;;8.82;;
34960;SDS011;30789;52.030;7.110;2022-08-19T09:32:29;10.68;;;9.32;;
34960;SDS011;30789;52.030;7.110;2022-08-19T09:34:56;10.98;;;8.70;;
34960;SDS011;30789;52.030;7.110;2022-08-19T09:37:23;11.82;;;9.32;;
34960;SDS011;30789;52.030;7.110;2022-08-19T09:39:49;9.55;;;8.30;;
34960;SDS011;30789;52.030;7.110;2022-08-19T09:42:16;8.82;;;7.93;;
34960;SDS011;30789;52.030;7.110;2022-08-19T09:44:43;11.10;;;8.63;;
34960;SDS011;30789;52.030;7.110;2022-08-19T09:47:10;9.73;;;8.10;;
34960;SDS011;30789;52.030;7.110;2022-08-19T09:49:38;8.75;;;7.85;;
34960;SDS011;30789;52.030;7.110;2022-08-19T09:52:04;10.00;;;7.70;;
34960;SDS011;30789;52.030;7.110;2022-08-19T09:54:32;9.63;;;8.60;;
34960;SDS011;30789;52.030;7.110;2022-08-19T09:56:59;12.48;;;9.40;;
34960;SDS011;30789;52.030;7.110;2022-08-19T09:59:26;9.80;;;8.63;;
34960;SDS011;30789;52.030;7.110;2022-08-19T10:01:54;9.65;;;8.65;;
34960;SDS011;30789;52.030;7.110;2022-08-19T10:04:20;13.48;;;10.00;;
34960;SDS011;30789;52.030;7.110;2022-08-19T10:06:47;11.07;;;8.45;;
34960;SDS011;30789;52.030;7.110;2022-08-19T10:09:14;13.07;;;8.77;;
34960;SDS011;30789;52.030;7.110;2022-08-19T10:11:41;12.18;;;9.48;;
34960;SDS011;30789;52.030;7.110;2022-08-19T10:14:08;12.38;;;8.93;;
34960;SDS011;30789;52.030;7.110;2022-08-19T10:16:36;9.88;;;8.88;;
34960;SDS011;30789;52.030;7.110;2022-08-19T10:19:03;12.05;;;9.65;;
34960;SDS011;30789;52.030;7.110;2022-08-19T10:21:30;9.60;;;8.60;;
34960;SDS011;30789;52.030;7.110;2022-08-19T10:23:58;10.70;;;9.20;;
34960;SDS011;30789;52.030;7.110;2022-08-19T10:26:25;11.07;;;9.48;;
34960;SDS011;30789;52.030;7.110;2022-08-19T10:28:52;11.63;;;9.25;;
34960;SDS011;30789;52.030;7.110;2022-08-19T10:31:19;9.27;;;8.27;;
34960;SDS011;30789;52.030;7.110;2022-08-19T10:33:46;11.57;;;8.93;;
34960;SDS011;30789;52.030;7.110;2022-08-19T10:36:16;12.45;;;9.43;;
34960;SDS011;30789;52.030;7.110;2022-08-19T10:38:43;14.15;;;10.85;;
34960;SDS011;30789;52.030;7.110;2022-08-19T10:41:10;12.45;;;9.73;;
34960;SDS011;30789;52.030;7.110;2022-08-19T10:43:37;10.02;;;8.57;;
34960;SDS011;30789;52.030;7.110;2022-08-19T10:46:05;12.70;;;10.07;;
34960;SDS011;30789;52.030;7.110;2022-08-19T10:48:31;8.52;;;7.53;;
34960;SDS011;30789;52.030;7.110;2022-08-19T10:50:58;10.88;;;9.45;;
34960;SDS011;30789;52.030;7.110;2022-08-19T10:53:43;10.50;;;8.32;;
34960;SDS011;30789;52.030;7.110;2022-08-19T10:56:09;11.18;;;9.25;;
34960;SDS011;30789;52.030;7.110;2022-08-19T10:58:53;11.00;;;9.10;;
34960;SDS011;30789;52.030;7.110;2022-08-19T11:01:22;9.20;;;7.47;;
34960;SDS011;30789;52.030;7.110;2022-08-19T11:03:48;11.52;;;9.32;;
34960;SDS011;30789;52.030;7.110;2022-08-19T11:06:15;10.10;;;8.90;;
34960;SDS011;30789;52.030;7.110;2022-08-19T11:08:42;9.82;;;6.95;;
34960;SDS011;30789;52.030;7.110;2022-08-19T11:11:10;8.90;;;6.93;;
34960;SDS011;30789;52.030;7.110;2022-08-19T11:13:37;8.20;;;7.28;;
34960;SDS011;30789;52.030;7.110;2022-08-19T11:16:04;10.85;;;8.30;;
34960;SDS011;30789;52.030;7.110;2022-08-19T11:18:32;9.85;;;6.97;;
34960;SDS011;30789;52.030;7.110;2022-08-19T11:21:04;8.13;;;6.80;;
34960;SDS011;30789;52.030;7.110;2022-08-19T11:23:31;7.63;;;6.93;;
34960;SDS011;30789;52.030;7.110;2022-08-19T11:25:59;6.53;;;5.88;;
34960;SDS011;30789;52.030;7.110;2022-08-19T11:28:26;6.03;;;5.22;;
34960;SDS011;30789;52.030;7.110;2022-08-19T11:30:52;9.43;;;7.53;;
34960;SDS011;30789;52.030;7.110;2022-08-19T11:33:18;7.97;;;7.13;;
34960;SDS011;30789;52.030;7.110;2022-08-19T11:35:45;9.00;;;7.10;;
34960;SDS011;30789;52.030;7.110;2022-08-19T11:38:11;6.50;;;5.90;;
34960;SDS011;30789;52.030;7.110;2022-08-19T11:40:38;7.40;;;6.05;;
34960;SDS011;30789;52.030;7.110;2022-08-19T11:43:06;6.88;;;6.18;;
34960;SDS011;30789;52.030;7.110;2022-08-19T11:45:34;7.30;;;5.90;;
34960;SDS011;30789;52.030;7.110;2022-08-19T11:48:00;6.10;;;4.97;;
34960;SDS011;30789;52.030;7.110;2022-08-19T11:50:27;7.50;;;5.40;;
34960;SDS011;30789;52.030;7.110;2022-08-19T11:52:54;6.18;;;4.75;;
34960;SDS011;30789;52.030;7.110;2022-08-19T11:55:20;4.15;;;3.85;;
34960;SDS011;30789;52.030;7.110;2022-08-19T11:57:47;5.18;;;3.78;;
34960;SDS011;30789;52.030;7.110;2022-08-19T12:00:15;5.13;;;4.63;;
34960;SDS011;30789;52.030;7.110;2022-08-19T12:02:41;4.72;;;4.07;;
34960;SDS011;30789;52.030;7.110;2022-08-19T12:05:07;6.80;;;6.15;;
34960;SDS011;30789;52.030;7.110;2022-08-19T12:07:34;7.50;;;6.00;;
34960;SDS011;30789;52.030;7.110;2022-08-19T12:10:00;5.43;;;4.93;;
34960;SDS011;30789;52.030;7.110;2022-08-19T12:12:27;8.27;;;7.22;;
34960;SDS011;30789;52.030;7.110;2022-08-19T12:14:53;10.38;;;7.30;;
34960;SDS011;30789;52.030;7.110;2022-08-19T12:17:24;5.75;;;5.07;;
34960;SDS011;30789;52.030;7.110;2022-08-19T12:19:51;6.22;;;5.32;;
34960;SDS011;30789;52.030;7.110;2022-08-19T12:22:18;6.65;;;5.45;;
34960;SDS011;30789;52.030;7.110;2022-08-19T12:24:45;7.32;;;5.40;;
34960;SDS011;30789;52.030;7.110;2022-08-19T12:27:12;6.15;;;4.15;;
34960;SDS011;30789;52.030;7.110;2022-08-19T12:29:39;6.35;;;5.75;;
34960;SDS011;30789;52.030;7.110;2022-08-19T12:32:06;7.35;;;6.13;;
34960;SDS011;30789;52.030;7.110;2022-08-19T12:34:35;8.77;;;6.07;;
34960;SDS011;30789;52.030;7.110;2022-08-19T12:37:03;8.23;;;6.43;;
34960;SDS011;30789;52.030;7.110;2022-08-19T12:39:30;6.80;;;5.47;;
34960;SDS011;30789;52.030;7.110;2022-08-19T12:41:59;8.13;;;5.85;;
34960;SDS011;30789;52.030;7.110;2022-08-19T12:44:25;6.72;;;5.45;;
34960;SDS011;30789;52.030;7.110;2022-08-19T12:46:52;5.97;;;5.22;;
34960;SDS011;30789;52.030;7.110;2022-08-19T12:49:18;5.82;;;4.90;;
34960;SDS011;30789;52.030;7.110;2022-08-19T12:51:46;7.93;;;5.07;;
34960;SDS011;30789;52.030;7.110;2022-08-19T12:54:12;5.95;;;5.35;;
34960;SDS011;30789;52.030;7.110;2022-08-19T12:56:39;4.70;;;4.30;;
34960;SDS011;30789;52.030;7.110;2022-08-19T12:59:08;4.90;;;3.83;;
34960;SDS011;30789;52.030;7.110;2022-08-19T13:01:36;6.50;;;5.03;;
34960;SDS011;30789;52.030;7.110;2022-08-19T13:04:03;4.97;;;4.53;;
34960;SDS011;30789;52.030;7.110;2022-08-19T13:06:29;7.00;;;4.75;;
34960;SDS011;30789;52.030;7.110;2022-08-19T13:08:57;5.10;;;4.45;;
34960;SDS011;30789;52.030;7.110;2022-08-19T13:11:23;4.85;;;3.80;;
34960;SDS011;30789;52.030;7.110;2022-08-19T13:13:50;5.30;;;4.45;;
34960;SDS011;30789;52.030;7.110;2022-08-19T13:16:17;6.40;;;4.53;;
34960;SDS011;30789;52.030;7.110;2022-08-19T13:18:45;4.70;;;3.75;;
34960;SDS011;30789;52.030;7.110;2022-08-19T13:21:12;5.25;;;4.07;;
34960;SDS011;30789;52.030;7.110;2022-08-19T13:23:39;5.50;;;4.05;;
34960;SDS011;30789;52.030;7.110;2022-08-19T13:26:07;5.18;;;3.63;;
34960;SDS011;30789;52.030;7.110;2022-08-19T13:28:33;4.93;;;4.40;;
34960;SDS011;30789;52.030;7.110;2022-08-19T13:31:15;4.53;;;3.63;;
34960;SDS011;30789;52.030;7.110;2022-08-19T13:33:58;5.53;;;4.22;;
34960;SDS011;30789;52.030;7.110;2022-08-19T13:36:25;4.65;;;3.75;;
34960;SDS011;30789;52.030;7.110;2022-08-19T13:38:52;4.72;;;4.10;;
34960;SDS011;30789;52.030;7.110;2022-08-19T13:41:20;8.40;;;3.95;;
34960;SDS011;30789;52.030;7.110;2022-08-19T13:43:46;3.92;;;3.08;;
34960;SDS011;30789;52.030;7.110;2022-08-19T13:46:13;3.63;;;3.20;;
34960;SDS011;30789;52.030;7.110;2022-08-19T13:48:40;3.83;;;3.28;;
34960;SDS011;30789;52.030;7.110;2022-08-19T13:51:07;4.70;;;3.22;;
34960;SDS011;30789;52.030;7.110;2022-08-19T13:53:35;3.83;;;3.38;;
34960;SDS011;30789;52.030;7.110;2022-08-19T13:56:04;3.75;;;3.20;;
34960;SDS011;30789;52.030;7.110;2022-08-19T13:58:32;4.38;;;2.90;;
34960;SDS011;30789;52.030;7.110;2022-08-19T14:00:58;5.18;;;2.97;;
34960;SDS011;30789;52.030;7.110;2022-08-19T14:03:25;5.63;;;3.08;;
34960;SDS011;30789;52.030;7.110;2022-08-19T14:05:52;5.82;;;3.53;;
34960;SDS011;30789;52.030;7.110;2022-08-19T14:08:18;4.45;;;2.97;;
34960;SDS011;30789;52.030;7.110;2022-08-19T14:10:45;5.13;;;3.65;;
34960;SDS011;30789;52.030;7.110;2022-08-19T14:13:13;5.80;;;4.00;;
34960;SDS011;30789;52.030;7.110;2022-08-19T14:15:41;6.50;;;5.10;;
34960;SDS011;30789;52.030;7.110;2022-08-19T14:18:07;4.43;;;3.83;;
34960;SDS011;30789;52.030;7.110;2022-08-19T14:20:33;6.40;;;4.10;;
34960;SDS011;30789;52.030;7.110;2022-08-19T14:23:00;6.78;;;4.22;;
34960;SDS011;30789;52.030;7.110;2022-08-19T14:25:27;4.82;;;3.95;;
34960;SDS011;30789;52.030;7.110;2022-08-19T14:27:54;6.78;;;5.13;;
34960;SDS011;30789;52.030;7.110;2022-08-19T14:30:21;6.00;;;4.15;;
34960;SDS011;30789;52.030;7.110;2022-08-19T14:32:49;7.65;;;6.05;;
34960;SDS011;30789;52.030;7.110;2022-08-19T14:35:16;7.18;;;5.28;;
34960;SDS011;30789;52.030;7.110;2022-08-19T14:37:43;9.25;;;4.82;;
34960;SDS011;30789;52.030;7.110;2022-08-19T14:40:11;9.63;;;6.57;;
34960;SDS011;30789;52.030;7.110;2022-08-19T14:42:37;8.35;;;5.45;;